createdAt,value
2018-03-04T00:00:46.115Z,0
2018-03-04T00:01:47.499Z,0
2018-03-04T00:02:48.873Z,0
2018-03-04T00:03:50.232Z,0
2018-03-04T00:04:51.607Z,0
2018-03-04T00:05:52.990Z,0
2018-03-04T00:06:54.361Z,0
2018-03-04T00:07:55.729Z,0
2018-03-04T00:08:57.106Z,0
2018-03-04T00:09:58.482Z,0
2018-03-04T00:10:59.856Z,0
2018-03-04T00:12:01.234Z,0
2018-03-04T00:13:02.607Z,0
2018-03-04T00:14:03.975Z,0
2018-03-04T00:15:05.348Z,0
2018-03-04T00:16:06.706Z,0
2018-03-04T00:17:08.081Z,0
2018-03-04T00:18:09.450Z,0
2018-03-04T00:19:10.817Z,0
2018-03-04T00:20:12.206Z,0
2018-03-04T00:21:13.581Z,0
2018-03-04T00:22:14.943Z,0
2018-03-04T00:23:16.318Z,0
2018-03-04T00:24:17.680Z,0
2018-03-04T00:25:19.050Z,0
2018-03-04T00:26:20.424Z,0
2018-03-04T00:27:21.812Z,0
2018-03-04T00:28:23.177Z,0
2018-03-04T00:29:24.551Z,0
2018-03-04T00:30:25.915Z,0
2018-03-04T00:31:27.291Z,0
2018-03-04T00:32:28.669Z,0
2018-03-04T00:33:30.033Z,0
2018-03-04T00:34:31.402Z,0
2018-03-04T00:35:32.763Z,0
2018-03-04T00:36:34.151Z,0
2018-03-04T00:37:35.521Z,0
2018-03-04T00:38:36.890Z,0
2018-03-04T00:39:38.268Z,0
2018-03-04T00:40:39.629Z,0
2018-03-04T00:41:41.002Z,0
2018-03-04T00:42:42.368Z,0
2018-03-04T00:43:43.740Z,0
2018-03-04T00:44:45.114Z,0
2018-03-04T00:45:46.488Z,0
2018-03-04T00:46:47.854Z,0
2018-03-04T00:47:50.208Z,0
2018-03-04T00:48:51.575Z,0
2018-03-04T00:49:52.969Z,0
2018-03-04T00:50:54.340Z,0
2018-03-04T00:51:55.713Z,0
2018-03-04T00:52:57.093Z,0
2018-03-04T00:53:58.455Z,0
2018-03-04T00:54:59.837Z,0
2018-03-04T00:56:01.204Z,0
2018-03-04T00:57:02.579Z,0
2018-03-04T00:58:03.950Z,0
2018-03-04T00:59:05.336Z,0
2018-03-04T01:00:06.699Z,0
2018-03-04T01:01:08.075Z,0
2018-03-04T01:02:09.447Z,0
2018-03-04T01:03:11.377Z,0
2018-03-04T01:04:12.752Z,0
2018-03-04T01:05:14.115Z,0
2018-03-04T01:06:15.483Z,0
2018-03-04T01:07:16.852Z,0
2018-03-04T01:08:18.225Z,0
2018-03-04T01:09:19.592Z,0
2018-03-04T01:10:20.961Z,0
2018-03-04T01:11:22.330Z,0
2018-03-04T01:12:23.698Z,0
2018-03-04T01:13:25.077Z,0
2018-03-04T01:14:26.451Z,0
2018-03-04T01:15:27.827Z,0
2018-03-04T01:16:29.206Z,0
2018-03-04T01:17:30.584Z,0
2018-03-04T01:18:31.942Z,0
2018-03-04T01:19:33.321Z,0
2018-03-04T01:20:34.678Z,0
2018-03-04T01:21:36.015Z,0
2018-03-04T01:22:37.395Z,0
2018-03-04T01:23:38.766Z,0
2018-03-04T01:24:40.132Z,0
2018-03-04T01:25:41.513Z,0
2018-03-04T01:26:42.883Z,0
2018-03-04T01:27:44.245Z,0
2018-03-04T01:28:45.620Z,0
2018-03-04T01:29:46.994Z,0
2018-03-04T01:30:48.370Z,0
2018-03-04T01:31:49.731Z,0
2018-03-04T01:32:51.105Z,0
2018-03-04T01:33:52.472Z,0
2018-03-04T01:34:53.853Z,0
2018-03-04T01:35:55.213Z,0
2018-03-04T01:36:56.590Z,0
2018-03-04T01:37:57.963Z,0
2018-03-04T01:38:59.338Z,0
2018-03-04T01:40:00.710Z,0
2018-03-04T01:41:02.088Z,0
2018-03-04T01:42:03.456Z,0
2018-03-04T01:43:04.830Z,0
2018-03-04T01:44:06.192Z,0
2018-03-04T01:45:07.562Z,0
2018-03-04T01:46:09.856Z,0
2018-03-04T01:47:11.230Z,0
2018-03-04T01:48:12.612Z,0
2018-03-04T01:49:13.984Z,0
2018-03-04T01:50:15.356Z,0
2018-03-04T01:51:16.726Z,0
2018-03-04T01:52:18.090Z,0
2018-03-04T01:53:19.462Z,0
2018-03-04T01:54:20.836Z,0
2018-03-04T01:55:22.207Z,0
2018-03-04T01:56:23.581Z,0
2018-03-04T01:57:24.941Z,0
2018-03-04T01:58:26.319Z,0
2018-03-04T01:59:27.695Z,0
2018-03-04T02:00:29.061Z,0
2018-03-04T02:01:30.438Z,0
2018-03-04T02:02:31.814Z,0
2018-03-04T02:03:33.199Z,0
2018-03-04T02:04:34.561Z,0
2018-03-04T02:05:35.942Z,0
2018-03-04T02:06:37.307Z,0
2018-03-04T02:07:38.675Z,0
2018-03-04T02:08:40.048Z,0
2018-03-04T02:09:41.418Z,0
2018-03-04T02:10:42.793Z,0
2018-03-04T02:11:44.166Z,0
2018-03-04T02:12:45.516Z,0
2018-03-04T02:13:46.886Z,0
2018-03-04T02:14:48.251Z,0
2018-03-04T02:15:49.622Z,0
2018-03-04T02:16:50.990Z,0
2018-03-04T02:17:52.370Z,0
2018-03-04T02:18:53.735Z,0
2018-03-04T02:19:55.109Z,0
2018-03-04T02:20:56.491Z,0
2018-03-04T02:21:57.849Z,0
2018-03-04T02:22:59.180Z,0
2018-03-04T02:24:00.559Z,0
2018-03-04T02:25:01.928Z,0
2018-03-04T02:26:03.300Z,0
2018-03-04T02:27:04.672Z,0
2018-03-04T02:28:06.039Z,0
2018-03-04T02:29:07.416Z,0
2018-03-04T02:30:08.778Z,0
2018-03-04T02:31:10.158Z,0
2018-03-04T02:32:11.528Z,0
2018-03-04T02:33:12.910Z,0
2018-03-04T02:34:14.278Z,0
2018-03-04T02:35:15.644Z,0
2018-03-04T02:36:17.024Z,0
2018-03-04T02:37:18.394Z,0
2018-03-04T02:38:19.760Z,0
2018-03-04T02:39:21.137Z,0
2018-03-04T02:40:22.492Z,0
2018-03-04T02:41:23.862Z,0
2018-03-04T02:42:25.231Z,0
2018-03-04T02:43:26.600Z,0
2018-03-04T02:44:27.969Z,0
2018-03-04T02:45:29.331Z,0
2018-03-04T02:46:30.690Z,0
2018-03-04T02:47:32.059Z,0
2018-03-04T02:48:33.423Z,0
2018-03-04T02:49:34.793Z,0
2018-03-04T02:50:36.152Z,0
2018-03-04T02:51:37.531Z,0
2018-03-04T02:52:38.907Z,0
2018-03-04T02:53:40.266Z,0
2018-03-04T02:54:41.646Z,0
2018-03-04T02:55:43.031Z,0
2018-03-04T02:56:44.391Z,0
2018-03-04T02:57:45.767Z,0
2018-03-04T02:58:47.119Z,0
2018-03-04T02:59:48.488Z,0
2018-03-04T03:00:49.858Z,0
2018-03-04T03:01:52.116Z,0
2018-03-04T03:02:53.490Z,0
2018-03-04T03:03:54.862Z,0
2018-03-04T03:04:56.226Z,0
2018-03-04T03:05:57.602Z,0
2018-03-04T03:06:58.963Z,0
2018-03-04T03:08:00.329Z,0
2018-03-04T03:09:01.708Z,0
2018-03-04T03:10:03.080Z,0
2018-03-04T03:11:04.444Z,0
2018-03-04T03:12:05.813Z,0
2018-03-04T03:13:07.181Z,0
2018-03-04T03:14:08.553Z,0
2018-03-04T03:15:09.934Z,0
2018-03-04T03:16:11.296Z,0
2018-03-04T03:17:12.656Z,0
2018-03-04T03:18:14.027Z,0
2018-03-04T03:19:15.404Z,0
2018-03-04T03:20:16.763Z,0
2018-03-04T03:21:18.133Z,0
2018-03-04T03:22:19.507Z,0
2018-03-04T03:23:20.882Z,0
2018-03-04T03:24:22.245Z,0
2018-03-04T03:25:23.627Z,0
2018-03-04T03:26:25.002Z,0
2018-03-04T03:27:26.382Z,0
2018-03-04T03:28:27.749Z,0
2018-03-04T03:29:29.131Z,0
2018-03-04T03:30:30.498Z,0
2018-03-04T03:31:31.871Z,0
2018-03-04T03:32:33.242Z,0
2018-03-04T03:33:34.621Z,0
2018-03-04T03:34:35.979Z,0
2018-03-04T03:35:37.358Z,0
2018-03-04T03:36:38.730Z,0
2018-03-04T03:37:40.102Z,0
2018-03-04T03:38:41.492Z,0
2018-03-04T03:39:42.858Z,0
2018-03-04T03:40:44.221Z,0
2018-03-04T03:41:45.595Z,0
2018-03-04T03:42:46.964Z,0
2018-03-04T03:43:48.332Z,0
2018-03-04T03:44:49.689Z,0
2018-03-04T03:45:51.060Z,0
2018-03-04T03:46:52.443Z,0
2018-03-04T03:47:53.821Z,0
2018-03-04T03:48:55.187Z,0
2018-03-04T03:49:56.559Z,0
2018-03-04T03:50:57.927Z,0
2018-03-04T03:51:59.313Z,0
2018-03-04T03:53:00.673Z,0
2018-03-04T03:54:02.042Z,0
2018-03-04T03:55:03.413Z,0
2018-03-04T03:56:04.784Z,0
2018-03-04T03:57:06.155Z,0
2018-03-04T03:58:07.523Z,0
2018-03-04T03:59:08.885Z,0
2018-03-04T04:00:10.249Z,0
2018-03-04T04:01:11.628Z,0
2018-03-04T04:02:13.000Z,0
2018-03-04T04:03:14.366Z,0
2018-03-04T04:04:15.748Z,0
2018-03-04T04:05:17.114Z,0
2018-03-04T04:06:18.488Z,0
2018-03-04T04:07:19.866Z,0
2018-03-04T04:08:21.234Z,0
2018-03-04T04:09:22.597Z,0
2018-03-04T04:10:23.961Z,0
2018-03-04T04:11:25.328Z,0
2018-03-04T04:12:26.698Z,0
2018-03-04T04:13:28.085Z,0
2018-03-04T04:14:29.439Z,0
2018-03-04T04:15:30.811Z,0
2018-03-04T04:16:32.181Z,0
2018-03-04T04:17:33.551Z,0
2018-03-04T04:18:34.930Z,0
2018-03-04T04:19:36.295Z,0
2018-03-04T04:20:37.668Z,0
2018-03-04T04:21:39.032Z,0
2018-03-04T04:22:40.423Z,0
2018-03-04T04:23:41.789Z,0
2018-03-04T04:24:43.151Z,0
2018-03-04T04:25:44.513Z,0
2018-03-04T04:26:45.894Z,0
2018-03-04T04:27:47.265Z,0
2018-03-04T04:28:48.629Z,0
2018-03-04T04:29:49.994Z,0
2018-03-04T04:30:51.360Z,0
2018-03-04T04:31:52.726Z,0
2018-03-04T04:32:54.102Z,0
2018-03-04T04:33:55.468Z,0
2018-03-04T04:34:56.840Z,0
2018-03-04T04:35:58.196Z,0
2018-03-04T04:36:59.560Z,0
2018-03-04T04:38:00.946Z,0
2018-03-04T04:39:02.338Z,0
2018-03-04T04:40:03.712Z,0
2018-03-04T04:41:05.085Z,0
2018-03-04T04:42:06.459Z,0
2018-03-04T04:43:07.828Z,0
2018-03-04T04:44:09.199Z,0
2018-03-04T04:45:10.576Z,0
2018-03-04T04:46:11.936Z,0
2018-03-04T04:47:13.312Z,0
2018-03-04T04:48:14.682Z,0
2018-03-04T04:49:16.047Z,0
2018-03-04T04:50:17.417Z,0
2018-03-04T04:51:18.779Z,0
2018-03-04T04:52:20.142Z,0
2018-03-04T04:53:21.513Z,0
2018-03-04T04:54:22.883Z,0
2018-03-04T04:55:24.250Z,0
2018-03-04T04:56:25.630Z,0
2018-03-04T04:57:26.994Z,0
2018-03-04T04:58:28.367Z,0
2018-03-04T04:59:29.736Z,0
2018-03-04T05:00:31.106Z,0
2018-03-04T05:01:32.474Z,0
2018-03-04T05:02:33.841Z,0
2018-03-04T05:03:35.206Z,0
2018-03-04T05:04:36.580Z,0
2018-03-04T05:05:37.948Z,0
2018-03-04T05:06:39.325Z,0
2018-03-04T05:07:40.686Z,0
2018-03-04T05:08:42.064Z,0
2018-03-04T05:09:43.433Z,0
2018-03-04T05:10:44.802Z,0
2018-03-04T05:11:46.162Z,0
2018-03-04T05:12:47.533Z,0
2018-03-04T05:13:48.908Z,0
2018-03-04T05:14:50.266Z,0
2018-03-04T05:15:51.652Z,0
2018-03-04T05:16:53.005Z,4
2018-03-04T05:17:54.377Z,0
2018-03-04T05:18:55.758Z,0
2018-03-04T05:19:57.124Z,4
2018-03-04T05:20:58.500Z,0
2018-03-04T05:21:59.877Z,4
2018-03-04T05:23:01.259Z,4
2018-03-04T05:24:02.628Z,4
2018-03-04T05:25:04.002Z,8
2018-03-04T05:26:05.376Z,8
2018-03-04T05:27:06.749Z,8
2018-03-04T05:28:08.117Z,8
2018-03-04T05:29:09.481Z,8
2018-03-04T05:30:10.846Z,8
2018-03-04T05:31:12.230Z,16
2018-03-04T05:32:13.606Z,16
2018-03-04T05:33:15.435Z,20
2018-03-04T05:34:16.284Z,24
2018-03-04T05:35:17.644Z,24
2018-03-04T05:36:19.015Z,28
2018-03-04T05:37:20.399Z,32
2018-03-04T05:38:21.773Z,36
2018-03-04T05:39:23.146Z,44
2018-03-04T05:40:24.527Z,44
2018-03-04T05:41:25.903Z,56
2018-03-04T05:42:27.327Z,60
2018-03-04T05:43:28.696Z,68
2018-03-04T05:44:30.071Z,76
2018-03-04T05:45:32.309Z,84
2018-03-04T05:46:33.765Z,92
2018-03-04T05:47:35.143Z,100
2018-03-04T05:48:36.688Z,112
2018-03-04T05:49:38.054Z,124
2018-03-04T05:50:39.435Z,136
2018-03-04T05:51:40.798Z,144
2018-03-04T05:52:42.269Z,160
2018-03-04T05:53:43.638Z,172
2018-03-04T05:54:45.016Z,188
2018-03-04T05:55:46.375Z,204
2018-03-04T05:56:47.757Z,216
2018-03-04T05:57:49.126Z,236
2018-03-04T05:58:50.492Z,252
2018-03-04T05:59:51.876Z,268
2018-03-04T06:00:53.245Z,292
2018-03-04T06:01:54.628Z,312
2018-03-04T06:02:56.002Z,332
2018-03-04T06:03:57.522Z,352
2018-03-04T06:04:58.891Z,376
2018-03-04T06:06:00.275Z,396
2018-03-04T06:07:02.490Z,424
2018-03-04T06:08:03.868Z,448
2018-03-04T06:09:05.233Z,476
2018-03-04T06:10:06.653Z,496
2018-03-04T06:11:08.033Z,524
2018-03-04T06:12:09.409Z,552
2018-03-04T06:13:10.816Z,580
2018-03-04T06:14:12.185Z,608
2018-03-04T06:15:13.557Z,640
2018-03-04T06:16:14.932Z,672
2018-03-04T06:17:16.309Z,704
2018-03-04T06:18:17.667Z,736
2018-03-04T06:19:19.045Z,764
2018-03-04T06:20:20.419Z,800
2018-03-04T06:21:21.796Z,836
2018-03-04T06:22:23.164Z,880
2018-03-04T06:23:24.536Z,916
2018-03-04T06:24:25.910Z,960
2018-03-04T06:25:27.293Z,1004
2018-03-04T06:26:28.654Z,1044
2018-03-04T06:27:30.036Z,1084
2018-03-04T06:28:31.428Z,1132
2018-03-04T06:29:32.824Z,1176
2018-03-04T06:30:34.183Z,1232
2018-03-04T06:31:35.557Z,1292
2018-03-04T06:32:37.504Z,1364
2018-03-04T06:33:38.871Z,1428
2018-03-04T06:34:40.251Z,1496
2018-03-04T06:35:41.902Z,1568
2018-03-04T06:36:43.283Z,1632
2018-03-04T06:37:44.651Z,1700
2018-03-04T06:38:46.021Z,1780
2018-03-04T06:39:47.453Z,1844
2018-03-04T06:40:48.821Z,1912
2018-03-04T06:41:50.424Z,1964
2018-03-04T06:42:51.788Z,2020
2018-03-04T06:43:53.166Z,2080
2018-03-04T06:44:54.540Z,2140
2018-03-04T06:45:55.913Z,2200
2018-03-04T06:46:57.280Z,2268
2018-03-04T06:48:00.340Z,2324
2018-03-04T06:49:01.682Z,2376
2018-03-04T06:50:03.062Z,2416
2018-03-04T06:51:04.435Z,2472
2018-03-04T06:52:05.897Z,2524
2018-03-04T06:53:07.268Z,2580
2018-03-04T06:54:08.666Z,2640
2018-03-04T06:55:10.038Z,2700
2018-03-04T06:56:11.410Z,2736
2018-03-04T06:57:12.808Z,2796
2018-03-04T06:58:14.176Z,2852
2018-03-04T06:59:15.563Z,2916
2018-03-04T07:00:16.935Z,2984
2018-03-04T07:01:18.306Z,3048
2018-03-04T07:02:19.693Z,3136
2018-03-04T07:03:21.070Z,3188
2018-03-04T07:04:22.447Z,3252
2018-03-04T07:05:23.823Z,3312
2018-03-04T07:06:25.193Z,3380
2018-03-04T07:07:26.573Z,3444
2018-03-04T07:08:27.953Z,3528
2018-03-04T07:09:29.323Z,3604
2018-03-04T07:10:30.708Z,3680
2018-03-04T07:11:32.075Z,3768
2018-03-04T07:12:33.463Z,3836
2018-03-04T07:13:34.836Z,3908
2018-03-04T07:14:36.214Z,3988
2018-03-04T07:15:37.584Z,4056
2018-03-04T07:16:38.956Z,4132
2018-03-04T07:17:40.342Z,4244
2018-03-04T07:18:41.709Z,4332
2018-03-04T07:19:43.097Z,4432
2018-03-04T07:20:44.467Z,4584
2018-03-04T07:21:45.841Z,4696
2018-03-04T07:22:47.218Z,4832
2018-03-04T07:23:49.542Z,5028
2018-03-04T07:24:51.573Z,5244
2018-03-04T07:25:53.028Z,5508
2018-03-04T07:26:55.128Z,5792
2018-03-04T07:27:56.514Z,6064
2018-03-04T07:28:57.880Z,6536
2018-03-04T07:29:59.481Z,6756
2018-03-04T07:31:00.720Z,6388
2018-03-04T07:32:02.341Z,5416
2018-03-04T07:33:03.733Z,5728
2018-03-04T07:34:05.100Z,5108
2018-03-04T07:35:06.537Z,4668
2018-03-04T07:36:07.858Z,4300
2018-03-04T07:37:09.240Z,4008
2018-03-04T07:38:10.628Z,3792
2018-03-04T07:39:12.004Z,3688
2018-03-04T07:40:15.178Z,3604
2018-03-04T07:41:16.662Z,3532
2018-03-04T07:42:18.056Z,3468
2018-03-04T07:43:19.434Z,3448
2018-03-04T07:44:20.842Z,3456
2018-03-04T07:45:22.220Z,3444
2018-03-04T07:46:23.607Z,3412
2018-03-04T07:47:24.980Z,3368
2018-03-04T07:48:26.390Z,3364
2018-03-04T07:49:27.756Z,3356
2018-03-04T07:50:29.150Z,3332
2018-03-04T07:51:30.526Z,3356
2018-03-04T07:52:31.984Z,3372
2018-03-04T07:53:33.292Z,3344
2018-03-04T07:54:34.684Z,3344
2018-03-04T07:55:36.073Z,3344
2018-03-04T07:56:37.458Z,2652
2018-03-04T07:57:38.833Z,3472
2018-03-04T07:58:40.215Z,3660
2018-03-04T07:59:41.640Z,3880
2018-03-04T08:00:43.024Z,4028
2018-03-04T08:01:44.658Z,4168
2018-03-04T08:02:46.021Z,4248
2018-03-04T08:03:47.427Z,4296
2018-03-04T08:04:48.822Z,4168
2018-03-04T08:05:50.190Z,4008
2018-03-04T08:06:51.571Z,3972
2018-03-04T08:07:52.956Z,4068
2018-03-04T08:08:54.352Z,4812
2018-03-04T08:09:55.735Z,5400
2018-03-04T08:10:57.119Z,11608
2018-03-04T08:11:58.493Z,14752
2018-03-04T08:12:59.878Z,16192
2018-03-04T08:14:01.248Z,18208
2018-03-04T08:15:02.650Z,20896
2018-03-04T08:16:04.016Z,20992
2018-03-04T08:17:05.394Z,18624
2018-03-04T08:18:06.761Z,24224
2018-03-04T08:19:08.173Z,25088
2018-03-04T08:20:10.154Z,25696
2018-03-04T08:21:11.552Z,25888
2018-03-04T08:22:12.948Z,26464
2018-03-04T08:23:14.332Z,27456
2018-03-04T08:24:15.706Z,28128
2018-03-04T08:25:17.101Z,27840
2018-03-04T08:26:18.502Z,27584
2018-03-04T08:27:20.415Z,27552
2018-03-04T08:28:21.857Z,27648
2018-03-04T08:29:23.249Z,27904
2018-03-04T08:30:24.624Z,27456
2018-03-04T08:31:26.017Z,27872
2018-03-04T08:32:27.396Z,28512
2018-03-04T08:33:28.740Z,28864
2018-03-04T08:34:30.174Z,28352
2018-03-04T08:35:31.468Z,28928
2018-03-04T08:36:32.872Z,29568
2018-03-04T08:37:34.263Z,29952
2018-03-04T08:38:35.657Z,28544
2018-03-04T08:39:37.060Z,29376
2018-03-04T08:40:38.472Z,30400
2018-03-04T08:41:39.857Z,30208
2018-03-04T08:42:41.251Z,29056
2018-03-04T08:43:42.644Z,32768
2018-03-04T08:44:44.024Z,33856
2018-03-04T08:45:45.420Z,33952
2018-03-04T08:46:46.828Z,34912
2018-03-04T08:47:48.242Z,33888
2018-03-04T08:48:49.635Z,33536
2018-03-04T08:49:51.032Z,20832
2018-03-04T08:50:52.428Z,14612
2018-03-04T08:51:53.819Z,26720
2018-03-04T08:52:55.215Z,32064
2018-03-04T08:53:56.610Z,33472
2018-03-04T08:54:58.012Z,31360
2018-03-04T08:55:59.442Z,29856
2018-03-04T08:57:00.865Z,14420
2018-03-04T08:58:02.248Z,21792
2018-03-04T08:59:03.639Z,17728
2018-03-04T09:00:05.036Z,13748
2018-03-04T09:01:06.437Z,19424
2018-03-04T09:02:07.839Z,19040
2018-03-04T09:03:09.234Z,13416
2018-03-04T09:04:10.678Z,12420
2018-03-04T09:05:13.080Z,20000
2018-03-04T09:06:14.472Z,25632
2018-03-04T09:07:15.874Z,25088
2018-03-04T09:08:17.276Z,16032
2018-03-04T09:09:18.662Z,18112
2018-03-04T09:10:20.067Z,17536
2018-03-04T09:11:21.458Z,35584
2018-03-04T09:12:22.859Z,36544
2018-03-04T09:13:24.262Z,34304
2018-03-04T09:14:25.683Z,34816
2018-03-04T09:15:27.104Z,34848
2018-03-04T09:16:28.483Z,35296
2018-03-04T09:17:29.888Z,35648
2018-03-04T09:18:31.292Z,34240
2018-03-04T09:19:32.679Z,34688
2018-03-04T09:20:34.081Z,36096
2018-03-04T09:21:35.483Z,35808
2018-03-04T09:22:36.874Z,36128
2018-03-04T09:23:38.267Z,35936
2018-03-04T09:24:40.159Z,36128
2018-03-04T09:25:41.559Z,36128
2018-03-04T09:26:42.974Z,36416
2018-03-04T09:27:44.355Z,36128
2018-03-04T09:28:45.763Z,36544
2018-03-04T09:29:47.162Z,37664
2018-03-04T09:30:48.579Z,39392
2018-03-04T09:31:50.853Z,39456
2018-03-04T09:32:52.291Z,38784
2018-03-04T09:33:53.719Z,40352
2018-03-04T09:34:55.113Z,41632
2018-03-04T09:35:56.506Z,40448
2018-03-04T09:36:57.917Z,38848
2018-03-04T09:37:59.491Z,38848
2018-03-04T09:39:00.896Z,39680
2018-03-04T09:40:02.317Z,40416
2018-03-04T09:41:03.720Z,40320
2018-03-04T09:42:05.116Z,40704
2018-03-04T09:43:06.521Z,40224
2018-03-04T09:44:07.966Z,40736
2018-03-04T09:45:09.303Z,39904
2018-03-04T09:46:10.708Z,38592
2018-03-04T09:47:12.111Z,42528
2018-03-04T09:48:13.520Z,48096
2018-03-04T09:49:14.913Z,47360
2018-03-04T09:50:17.221Z,43552
2018-03-04T09:51:18.628Z,42720
2018-03-04T09:52:20.040Z,43072
2018-03-04T09:53:21.447Z,43072
2018-03-04T09:54:22.801Z,44032
2018-03-04T09:55:24.223Z,44928
2018-03-04T09:56:25.621Z,43616
2018-03-04T09:57:27.024Z,41600
2018-03-04T09:58:28.451Z,44736
2018-03-04T09:59:29.893Z,31872
2018-03-04T10:00:31.314Z,29024
2018-03-04T10:01:32.812Z,28992
2018-03-04T10:02:34.170Z,30400
2018-03-04T10:03:36.131Z,29760
2018-03-04T10:04:37.544Z,34944
2018-03-04T10:05:38.983Z,46784
2018-03-04T10:06:40.362Z,51360
2018-03-04T10:07:41.785Z,49376
2018-03-04T10:08:43.179Z,41152
2018-03-04T10:09:44.593Z,39840
2018-03-04T10:10:45.998Z,38912
2018-03-04T10:11:47.396Z,37536
2018-03-04T10:12:48.858Z,35872
2018-03-04T10:13:50.266Z,39776
2018-03-04T10:14:51.717Z,41696
2018-03-04T10:15:53.116Z,40576
2018-03-04T10:16:54.547Z,45888
2018-03-04T10:17:55.951Z,48832
2018-03-04T10:18:57.363Z,47520
2018-03-04T10:19:58.762Z,46816
2018-03-04T10:21:00.177Z,47200
2018-03-04T10:22:02.548Z,47872
2018-03-04T10:23:03.936Z,49120
2018-03-04T10:24:05.353Z,48864
2018-03-04T10:25:06.764Z,48192
2018-03-04T10:26:08.211Z,48416
2018-03-04T10:27:09.589Z,49920
2018-03-04T10:28:11.004Z,50400
2018-03-04T10:29:12.414Z,44608
2018-03-04T10:30:13.821Z,45664
2018-03-04T10:31:16.118Z,46720
2018-03-04T10:32:17.522Z,48160
2018-03-04T10:33:18.916Z,51392
2018-03-04T10:34:20.332Z,46464
2018-03-04T10:35:21.726Z,44576
2018-03-04T10:36:23.139Z,44544
2018-03-04T10:37:24.565Z,40352
2018-03-04T10:38:25.978Z,40384
2018-03-04T10:39:27.384Z,38400
2018-03-04T10:40:28.792Z,37056
2018-03-04T10:41:30.190Z,38944
2018-03-04T10:42:31.567Z,43968
2018-03-04T10:43:32.958Z,42560
2018-03-04T10:44:34.386Z,41536
2018-03-04T10:45:35.741Z,43392
2018-03-04T10:46:37.167Z,36640
2018-03-04T10:47:38.553Z,31744
2018-03-04T10:48:39.942Z,29152
2018-03-04T10:49:41.343Z,23680
2018-03-04T10:50:42.745Z,28000
2018-03-04T10:51:44.771Z,36416
2018-03-04T10:52:46.165Z,30720
2018-03-04T10:53:47.563Z,32928
2018-03-04T10:54:48.969Z,32096
2018-03-04T10:55:50.390Z,39328
2018-03-04T10:56:51.785Z,49248
2018-03-04T10:57:53.202Z,44800
2018-03-04T10:58:54.613Z,42336
2018-03-04T10:59:56.013Z,36128
2018-03-04T11:00:57.374Z,38592
2018-03-04T11:01:58.778Z,33792
2018-03-04T11:03:00.181Z,29824
2018-03-04T11:04:01.591Z,33120
2018-03-04T11:05:02.992Z,33600
2018-03-04T11:06:04.391Z,31360
2018-03-04T11:07:05.803Z,27392
2018-03-04T11:08:07.209Z,26720
2018-03-04T11:09:08.619Z,27488
2018-03-04T11:10:10.035Z,31392
2018-03-04T11:11:11.454Z,36000
2018-03-04T11:12:12.860Z,40256
2018-03-04T11:13:14.258Z,44192
2018-03-04T11:14:15.661Z,42752
2018-03-04T11:15:17.722Z,40992
2018-03-04T11:16:19.064Z,34784
2018-03-04T11:17:20.460Z,36576
2018-03-04T11:18:21.863Z,41344
2018-03-04T11:19:23.260Z,39808
2018-03-04T11:20:24.706Z,33280
2018-03-04T11:21:26.083Z,16704
2018-03-04T11:22:27.490Z,13096
2018-03-04T11:23:28.898Z,13256
2018-03-04T11:24:30.299Z,13404
2018-03-04T11:25:31.687Z,13176
2018-03-04T11:26:33.122Z,12536
2018-03-04T11:27:34.519Z,12184
2018-03-04T11:28:35.978Z,12588
2018-03-04T11:29:37.296Z,11752
2018-03-04T11:30:38.696Z,13464
2018-03-04T11:31:40.110Z,14128
2018-03-04T11:32:41.515Z,14948
2018-03-04T11:33:42.900Z,22240
2018-03-04T11:34:45.213Z,38432
2018-03-04T11:35:46.613Z,39488
2018-03-04T11:36:48.002Z,41024
2018-03-04T11:37:49.406Z,40128
2018-03-04T11:38:50.809Z,32512
2018-03-04T11:39:52.205Z,34112
2018-03-04T11:40:53.604Z,39520
2018-03-04T11:41:55.004Z,42336
2018-03-04T11:42:56.393Z,39104
2018-03-04T11:43:57.783Z,29472
2018-03-04T11:44:59.177Z,35520
2018-03-04T11:46:00.612Z,19776
2018-03-04T11:47:02.019Z,16064
2018-03-04T11:48:03.416Z,14420
2018-03-04T11:49:04.803Z,14800
2018-03-04T11:50:06.199Z,16288
2018-03-04T11:51:07.692Z,17792
2018-03-04T11:52:09.088Z,20672
2018-03-04T11:53:10.483Z,20704
2018-03-04T11:54:11.892Z,19936
2018-03-04T11:55:13.281Z,20736
2018-03-04T11:56:14.706Z,19584
2018-03-04T11:57:16.152Z,29088
2018-03-04T11:58:17.545Z,25984
2018-03-04T11:59:18.935Z,22624
2018-03-04T12:00:20.332Z,25920
2018-03-04T12:01:21.737Z,33120
2018-03-04T12:02:23.132Z,38432
2018-03-04T12:03:24.522Z,31968
2018-03-04T12:04:25.924Z,22336
2018-03-04T12:05:27.323Z,17248
2018-03-04T12:06:28.725Z,21408
2018-03-04T12:07:30.117Z,27424
2018-03-04T12:08:31.514Z,21952
2018-03-04T12:09:32.905Z,13412
2018-03-04T12:10:34.294Z,14416
2018-03-04T12:11:35.696Z,14568
2018-03-04T12:12:37.098Z,13440
2018-03-04T12:13:38.531Z,12708
2018-03-04T12:14:39.936Z,12568
2018-03-04T12:15:41.320Z,13216
2018-03-04T12:16:42.708Z,13696
2018-03-04T12:17:44.098Z,12784
2018-03-04T12:18:45.504Z,12960
2018-03-04T12:19:46.844Z,11768
2018-03-04T12:20:48.258Z,16608
2018-03-04T12:21:49.638Z,25408
2018-03-04T12:22:51.037Z,20000
2018-03-04T12:23:52.426Z,20928
2018-03-04T12:24:53.861Z,17024
2018-03-04T12:25:55.248Z,20928
2018-03-04T12:26:56.639Z,18368
2018-03-04T12:27:58.059Z,13516
2018-03-04T12:28:59.543Z,8540
2018-03-04T12:30:00.980Z,13244
2018-03-04T12:31:02.377Z,11344
2018-03-04T12:32:03.771Z,23136
2018-03-04T12:33:05.159Z,24160
2018-03-04T12:34:06.597Z,29600
2018-03-04T12:35:08.015Z,28896
2018-03-04T12:36:09.420Z,26112
2018-03-04T12:37:10.823Z,19968
2018-03-04T12:38:12.203Z,13496
2018-03-04T12:39:13.601Z,11180
2018-03-04T12:40:14.968Z,10184
2018-03-04T12:41:16.380Z,12736
2018-03-04T12:42:17.776Z,11720
2018-03-04T12:43:19.169Z,11008
2018-03-04T12:44:20.556Z,24000
2018-03-04T12:45:21.938Z,37280
2018-03-04T12:46:23.336Z,36576
2018-03-04T12:47:24.721Z,34304
2018-03-04T12:48:26.133Z,35232
2018-03-04T12:49:27.528Z,33600
2018-03-04T12:50:28.921Z,29632
2018-03-04T12:51:30.260Z,28864
2018-03-04T12:52:31.646Z,23744
2018-03-04T12:53:33.026Z,12356
2018-03-04T12:54:34.423Z,10044
2018-03-04T12:55:35.829Z,9892
2018-03-04T12:56:37.194Z,19008
2018-03-04T12:57:38.593Z,27776
2018-03-04T12:58:39.933Z,17664
2018-03-04T12:59:41.331Z,18464
2018-03-04T13:00:42.718Z,25792
2018-03-04T13:01:44.086Z,27904
2018-03-04T13:02:45.516Z,21920
2018-03-04T13:03:46.867Z,19072
2018-03-04T13:04:48.272Z,15872
2018-03-04T13:05:49.664Z,10288
2018-03-04T13:06:51.078Z,9176
2018-03-04T13:07:52.456Z,8588
2018-03-04T13:08:53.873Z,8324
2018-03-04T13:09:55.273Z,9636
2018-03-04T13:10:56.667Z,13092
2018-03-04T13:11:58.044Z,11052
2018-03-04T13:12:59.429Z,9160
2018-03-04T13:14:00.852Z,9444
2018-03-04T13:15:02.243Z,15872
2018-03-04T13:16:03.698Z,17888
2018-03-04T13:17:06.085Z,17568
2018-03-04T13:18:07.510Z,19360
2018-03-04T13:19:08.892Z,12564
2018-03-04T13:20:10.289Z,14692
2018-03-04T13:21:11.680Z,7572
2018-03-04T13:22:13.057Z,7392
2018-03-04T13:23:14.452Z,7576
2018-03-04T13:24:15.843Z,8356
2018-03-04T13:25:17.229Z,7384
2018-03-04T13:26:18.617Z,7004
2018-03-04T13:27:19.961Z,7016
2018-03-04T13:28:21.373Z,7092
2018-03-04T13:29:22.742Z,8164
2018-03-04T13:30:24.091Z,18464
2018-03-04T13:31:25.453Z,25728
2018-03-04T13:32:26.854Z,23328
2018-03-04T13:33:28.196Z,19712
2018-03-04T13:34:29.549Z,14848
2018-03-04T13:35:30.910Z,9416
2018-03-04T13:36:32.253Z,5548
2018-03-04T13:37:33.637Z,5192
2018-03-04T13:38:34.985Z,5032
2018-03-04T13:39:36.326Z,6084
2018-03-04T13:40:37.701Z,4888
2018-03-04T13:41:39.006Z,4684
2018-03-04T13:42:40.378Z,4612
2018-03-04T13:43:41.777Z,4540
2018-03-04T13:44:43.165Z,4488
2018-03-04T13:45:44.557Z,4424
2018-03-04T13:46:45.941Z,4344
2018-03-04T13:47:47.323Z,4296
2018-03-04T13:48:48.757Z,4220
2018-03-04T13:49:50.107Z,4136
2018-03-04T13:50:51.547Z,4076
2018-03-04T13:51:52.910Z,4020
2018-03-04T13:52:54.322Z,3956
2018-03-04T13:53:55.692Z,3904
2018-03-04T13:54:57.123Z,3884
2018-03-04T13:55:58.455Z,3816
2018-03-04T13:56:59.830Z,3784
2018-03-04T13:58:01.223Z,3744
2018-03-04T13:59:02.628Z,3704
2018-03-04T14:00:04.021Z,3652
2018-03-04T14:01:05.420Z,3600
2018-03-04T14:02:06.804Z,3524
2018-03-04T14:03:08.203Z,3448